Slatersville, Rhode Island
Current Conditions -  °F | °C
As of 4:15 AM on Monday 24 Nov 2014 (Local Time) from KSFZ Reporting Station
Overcast Overcast  
Wind Chill: 46°   Ceiling: 300
Heat Index: 48°   Visibility: 3mi
Dew Point: 45°   Wind: 6mph
Humidity: 87%   Direction: 140°SE
Pressure: 29.96"   Gusts: NA
Location:  42°N, 71.58°W
Report Text: KSFZ 240915Z 14005KT 3SM BKN003 BKN007 OVC033 09/07 A2996 RMK AO1
Loading
Personal Weather Stations






























Interactive Weather Map New forecast layout! Learn more

10-Day Weather Forecast

Advertisements
Track Severe Weather on mobile